Time;durP1;ratioP1;P1;durP2;ratioP2;P2;SDS_P1;SDS_P2;PMS_P1;PMS_P2;Temp;Humidity;BMP_temperature;BMP_pressure;BME280_temperature;BME280_humidity;BME280_pressure;Samples;Min_cycle;Max_cycle;Signal;HPM_P1;HPM_P2
2022/03/15 00:01:04;;;;;;;14.32;6.82;;;2.70;99.90;;;;;;5055694;28;20045;-67
2022/03/15 00:03:30;;;;;;;21.20;8.40;;;2.60;99.90;;;;;;5048552;28;20118;-68
2022/03/15 00:05:56;;;;;;;23.85;8.27;;;2.70;99.90;;;;;;5050758;28;20036;-68
2022/03/15 00:08:21;;;;;;;15.43;7.55;;;2.60;99.90;;;;;;5050864;28;20437;-68
2022/03/15 00:10:48;;;;;;;17.10;9.40;;;2.70;99.90;;;;;;5063916;28;20459;-67
2022/03/15 00:13:15;;;;;;;20.60;9.02;;;2.70;99.90;;;;;;5051797;28;20052;-68
2022/03/15 00:15:42;;;;;;;21.30;10.10;;;2.70;99.90;;;;;;5049987;28;20041;-67
2022/03/15 00:18:08;;;;;;;25.35;11.68;;;2.70;99.90;;;;;;5046926;28;20091;-67
2022/03/15 00:20:34;;;;;;;27.38;12.38;;;2.80;99.90;;;;;;5038846;28;20049;-69
2022/03/15 00:23:00;;;;;;;25.92;11.27;;;2.90;99.90;;;;;;5050463;28;20052;-67
2022/03/15 00:25:26;;;;;;;30.08;13.45;;;2.90;99.90;;;;;;5035936;28;20464;-67
2022/03/15 00:27:53;;;;;;;29.70;13.93;;;3.10;99.90;;;;;;5056452;28;20028;-66
2022/03/15 00:30:24;;;;;;;37.90;16.75;;;3.20;99.90;;;;;;5051337;28;20121;-66
2022/03/15 00:32:50;;;;;;;36.42;15.55;;;3.40;99.90;;;;;;5048276;28;20037;-67
2022/03/15 00:35:18;;;;;;;33.55;15.95;;;3.60;99.90;;;;;;5046479;28;20041;-67
2022/03/15 00:37:48;;;;;;;31.90;14.27;;;3.50;99.90;;;;;;5057273;28;20048;-67
2022/03/15 00:40:14;;;;;;;;;;;3.50;99.90;;;;;;5036710;28;20059;-67
2022/03/15 00:42:40;;;;;;;19.52;9.45;;;3.40;99.90;;;;;;5048319;28;19917;-67
2022/03/15 00:45:07;;;;;;;17.00;9.52;;;3.30;99.90;;;;;;5053615;28;20095;-67
2022/03/15 00:47:32;;;;;;;22.00;9.73;;;3.30;99.90;;;;;;5038592;28;20044;-67
2022/03/15 00:49:59;;;;;;;22.27;12.13;;;3.30;99.90;;;;;;5064633;28;20601;-67
2022/03/15 00:52:25;;;;;;;17.42;10.15;;;3.30;99.90;;;;;;5056971;28;20411;-66
2022/03/15 00:54:50;;;;;;;25.27;11.73;;;3.40;99.90;;;;;;5053449;28;20072;-66
2022/03/15 00:57:17;;;;;;;24.40;12.20;;;3.40;99.90;;;;;;5064136;28;20089;-67
2022/03/15 00:59:42;;;;;;;19.00;10.23;;;3.40;99.90;;;;;;5055497;28;20119;-68
2022/03/15 01:02:08;;;;;;;30.35;13.02;;;3.30;99.90;;;;;;5046725;28;20175;-67
2022/03/15 01:04:33;;;;;;;26.42;11.43;;;3.30;99.90;;;;;;5059968;28;20040;-67
2022/03/15 01:06:59;;;;;;;23.27;11.98;;;3.30;99.90;;;;;;5046292;28;20590;-67
2022/03/15 01:09:24;;;;;;;24.88;12.10;;;3.30;99.90;;;;;;5056674;28;20523;-67
2022/03/15 01:11:50;;;;;;;23.50;11.32;;;3.30;99.90;;;;;;5054151;28;20040;-67
2022/03/15 01:14:16;;;;;;;22.00;11.95;;;3.20;99.90;;;;;;5061763;28;20127;-67
2022/03/15 01:16:41;;;;;;;23.98;13.48;;;3.20;99.90;;;;;;5035234;28;20048;-67
2022/03/15 01:19:08;;;;;;;25.75;12.85;;;3.20;99.90;;;;;;5050554;28;20132;-67
2022/03/15 01:21:38;;;;;;;32.20;14.02;;;3.20;99.90;;;;;;5060353;28;20060;-67
2022/03/15 01:24:08;;;;;;;27.73;13.30;;;3.20;99.90;;;;;;5047027;28;20052;-67
2022/03/15 01:26:34;;;;;;;24.50;12.57;;;3.20;99.90;;;;;;5057876;28;20465;-67
2022/03/15 01:29:01;;;;;;;32.20;13.07;;;3.20;99.90;;;;;;5043733;28;20124;-67
2022/03/15 01:31:27;;;;;;;21.42;11.38;;;3.20;99.90;;;;;;5061486;28;20037;-68
2022/03/15 01:33:53;;;;;;;21.42;12.00;;;3.10;99.90;;;;;;5048065;28;20903;-67
2022/03/15 01:36:19;;;;;;;31.30;12.88;;;3.10;99.90;;;;;;5058039;28;20040;-67
2022/03/15 01:38:45;;;;;;;26.58;13.05;;;3.10;99.90;;;;;;5046694;28;20032;-67
2022/03/15 01:41:11;;;;;;;25.20;12.30;;;3.10;99.90;;;;;;5045504;28;20032;-67
2022/03/15 01:43:39;;;;;;;21.48;11.27;;;3.00;99.90;;;;;;5054454;28;20523;-67
2022/03/15 01:46:06;;;;;;;21.85;11.18;;;3.00;99.90;;;;;;5055511;28;20041;-67
2022/03/15 01:48:31;;;;;;;21.20;10.50;;;3.00;99.90;;;;;;5062155;28;20063;-67
2022/03/15 01:50:57;;;;;;;15.35;9.20;;;2.90;99.90;;;;;;5055527;28;20044;-67
2022/03/15 01:53:23;;;;;;;15.95;9.05;;;2.80;99.90;;;;;;5063610;28;20036;-67
2022/03/15 01:55:49;;;;;;;16.83;8.05;;;2.80;99.90;;;;;;5056456;28;20149;-67
2022/03/15 01:58:14;;;;;;;17.25;9.00;;;2.70;99.90;;;;;;5043461;28;20139;-67
2022/03/15 02:00:40;;;;;;;15.95;8.32;;;2.60;99.90;;;;;;5059670;28;20504;-67
2022/03/15 02:03:06;;;;;;;16.48;8.30;;;2.50;99.90;;;;;;5057055;28;20453;-67
2022/03/15 02:05:31;;;;;;;18.52;8.82;;;2.40;99.90;;;;;;5061009;28;20032;-68
2022/03/15 02:08:06;;;;;;;17.70;8.00;;;2.30;99.90;;;;;;5053143;28;20468;-67
2022/03/15 02:10:31;;;;;;;14.15;8.18;;;2.30;99.90;;;;;;5050587;28;20037;-67
2022/03/15 02:12:56;;;;;;;16.98;8.18;;;2.20;99.90;;;;;;5045510;28;20052;-68
2022/03/15 02:15:22;;;;;;;18.05;8.57;;;2.10;99.90;;;;;;5062194;28;20400;-68
2022/03/15 02:17:48;;;;;;;15.07;8.63;;;2.10;99.90;;;;;;5050648;28;20543;-67
2022/03/15 02:20:13;;;;;;;19.95;8.63;;;2.00;99.90;;;;;;5052367;28;20454;-67
2022/03/15 02:22:39;;;;;;;18.20;7.82;;;2.00;99.90;;;;;;5052494;28;20179;-68
2022/03/15 02:25:05;;;;;;;13.38;8.00;;;2.10;99.90;;;;;;5053016;28;20044;-68
2022/03/15 02:27:30;;;;;;;13.13;7.85;;;2.00;99.90;;;;;;5043355;28;20044;-68
2022/03/15 02:29:56;;;;;;;12.73;7.22;;;2.10;99.90;;;;;;5050099;28;20041;-68
2022/03/15 02:32:22;;;;;;;16.35;7.50;;;2.00;99.90;;;;;;5031516;28;20124;-68
2022/03/15 02:34:47;;;;;;;13.80;8.10;;;2.00;99.90;;;;;;5052563;28;20536;-69
2022/03/15 02:37:13;;;;;;;12.93;7.07;;;1.90;99.90;;;;;;5042454;28;20057;-68
2022/03/15 02:39:38;;;;;;;11.68;6.07;;;1.80;99.90;;;;;;5037449;28;20044;-68
2022/03/15 02:42:04;;;;;;;17.17;7.40;;;1.80;99.90;;;;;;5048228;28;20040;-68
2022/03/15 02:44:30;;;;;;;15.00;8.43;;;1.80;99.90;;;;;;5049457;28;20045;-68
2022/03/15 02:46:56;;;;;;;20.55;8.93;;;1.80;99.90;;;;;;5058094;28;20072;-68
2022/03/15 02:49:21;;;;;;;14.85;8.35;;;1.80;99.90;;;;;;5057221;28;20061;-68
2022/03/15 02:51:47;;;;;;;17.00;9.70;;;1.80;99.90;;;;;;5056287;28;20039;-68
2022/03/15 02:54:13;;;;;;;18.98;8.93;;;1.80;99.90;;;;;;5050893;28;20043;-67
2022/03/15 02:56:42;;;;;;;16.05;8.45;;;1.80;99.90;;;;;;5045845;28;20151;-67
2022/03/15 02:59:15;;;;;;;16.42;8.20;;;1.80;99.90;;;;;;5063240;28;20599;-68
2022/03/15 03:01:45;;;;;;;17.48;8.93;;;1.80;99.90;;;;;;5044969;28;20056;-68
2022/03/15 03:04:11;;;;;;;14.95;8.65;;;1.70;99.90;;;;;;5055787;28;20077;-67
2022/03/15 03:06:43;;;;;;;18.33;10.15;;;1.70;99.90;;;;;;5062142;28;20040;-68
2022/03/15 03:09:11;;;;;;;16.83;9.43;;;1.70;99.90;;;;;;5051189;28;20443;-67
2022/03/15 03:11:37;;;;;;;16.00;9.25;;;1.70;99.90;;;;;;5050053;28;20072;-68
2022/03/15 03:14:04;;;;;;;17.20;10.10;;;1.70;99.90;;;;;;5041384;28;20472;-68
2022/03/15 03:16:29;;;;;;;13.57;9.05;;;1.70;99.90;;;;;;5046970;28;20388;-67
2022/03/15 03:18:58;;;;;;;14.90;9.20;;;1.70;99.90;;;;;;5053683;28;20036;-68
2022/03/15 03:21:28;;;;;;;16.23;8.98;;;1.70;99.90;;;;;;5057705;28;20091;-67
2022/03/15 03:23:54;;;;;;;;;;;1.60;99.90;;;;;;5051698;28;20033;-68
2022/03/15 03:26:21;;;;;;;17.17;8.80;;;1.60;99.90;;;;;;5035707;28;19966;-68
2022/03/15 03:28:47;;;;;;;17.35;9.07;;;1.60;99.90;;;;;;5041696;28;20071;-68
2022/03/15 03:31:14;;;;;;;12.10;7.30;;;1.60;99.90;;;;;;5052932;28;20548;-68
2022/03/15 03:33:40;;;;;;;19.70;9.75;;;1.50;99.90;;;;;;5041283;28;20036;-67
2022/03/15 03:36:06;;;;;;;19.40;9.05;;;1.50;99.90;;;;;;5058397;28;20485;-68
2022/03/15 03:38:31;;;;;;;17.42;9.23;;;1.50;99.90;;;;;;5062208;28;20041;-68
2022/03/15 03:40:57;;;;;;;19.20;9.93;;;1.50;99.90;;;;;;5065372;28;20120;-68
2022/03/15 03:43:23;;;;;;;16.65;9.73;;;1.40;99.90;;;;;;5042400;28;20036;-68
2022/03/15 03:45:49;;;;;;;15.73;9.02;;;1.40;99.90;;;;;;5050077;28;20037;-68
2022/03/15 03:48:14;;;;;;;18.27;10.55;;;1.50;99.90;;;;;;5055362;28;20090;-68
2022/03/15 03:50:40;;;;;;;14.85;8.75;;;1.50;99.90;;;;;;5053114;28;20086;-68
2022/03/15 03:53:06;;;;;;;12.80;8.23;;;1.60;99.90;;;;;;5046997;28;20048;-67
2022/03/15 03:55:32;;;;;;;15.35;9.43;;;1.60;99.90;;;;;;5060190;28;20041;-68
2022/03/15 03:57:59;;;;;;;16.90;10.15;;;1.60;99.90;;;;;;5033646;28;20033;-68
2022/03/15 04:00:25;;;;;;;19.20;9.82;;;1.70;99.90;;;;;;5051933;28;20067;-68
2022/03/15 04:02:57;;;;;;;14.55;9.02;;;1.70;99.90;;;;;;5049753;28;20440;-68
2022/03/15 04:05:23;;;;;;;19.50;9.60;;;1.80;99.90;;;;;;5064106;28;20098;-68
2022/03/15 04:07:49;;;;;;;21.08;10.73;;;1.80;99.90;;;;;;5046861;28;20049;-68
2022/03/15 04:10:16;;;;;;;21.38;11.32;;;1.80;99.90;;;;;;5048608;28;21979;-68
2022/03/15 04:12:44;;;;;;;18.17;11.98;;;1.80;99.90;;;;;;5033183;28;20036;-68
2022/03/15 04:15:09;;;;;;;21.83;11.95;;;1.90;99.90;;;;;;5049817;28;20123;-68
2022/03/15 04:17:35;;;;;;;22.05;11.80;;;1.90;99.90;;;;;;5048188;28;20170;-67
2022/03/15 04:20:03;;;;;;;28.23;13.73;;;2.00;99.90;;;;;;5053106;28;20055;-68
2022/03/15 04:22:28;;;;;;;21.40;12.65;;;2.10;99.90;;;;;;5052148;28;20126;-68
2022/03/15 04:24:54;;;;;;;22.92;10.30;;;2.20;99.90;;;;;;5061492;28;20473;-67
2022/03/15 04:27:20;;;;;;;18.08;11.15;;;2.30;99.90;;;;;;5047219;28;20471;-69
2022/03/15 04:29:45;;;;;;;18.90;10.38;;;2.30;99.90;;;;;;5050362;28;20040;-68
2022/03/15 04:32:11;;;;;;;19.35;10.88;;;2.30;99.90;;;;;;5054151;28;20060;-68
2022/03/15 04:34:37;;;;;;;21.45;11.50;;;2.30;99.90;;;;;;5058644;28;20128;-68
2022/03/15 04:37:02;;;;;;;20.60;11.65;;;2.30;99.90;;;;;;5044496;28;20055;-68
2022/03/15 04:39:28;;;;;;;20.55;11.63;;;2.30;99.90;;;;;;5051589;28;20040;-68
2022/03/15 04:41:54;;;;;;;22.50;12.80;;;2.40;99.90;;;;;;5058190;28;20123;-68
2022/03/15 04:44:20;;;;;;;19.00;11.98;;;2.40;99.90;;;;;;5054865;28;20076;-68
2022/03/15 04:46:46;;;;;;;21.90;12.55;;;2.50;99.90;;;;;;5040564;28;20045;-68
2022/03/15 04:49:11;;;;;;;28.90;13.98;;;2.50;99.90;;;;;;5046143;28;20389;-68
2022/03/15 04:51:38;;;;;;;25.88;13.40;;;2.60;99.90;;;;;;5057364;28;20037;-69
2022/03/15 04:54:03;;;;;;;29.27;14.82;;;2.70;99.90;;;;;;5055568;28;20041;-69
2022/03/15 04:56:29;;;;;;;29.77;13.45;;;2.70;99.90;;;;;;5052462;28;20055;-68
2022/03/15 04:58:55;;;;;;;23.90;13.13;;;2.80;99.90;;;;;;5063661;28;20127;-69
2022/03/15 05:01:20;;;;;;;26.48;13.20;;;2.80;99.90;;;;;;5041074;28;20041;-68
2022/03/15 05:03:46;;;;;;;22.92;13.32;;;2.80;99.90;;;;;;5056653;28;20143;-68
2022/03/15 05:06:12;;;;;;;30.08;15.23;;;2.90;99.90;;;;;;5036925;28;20139;-68
2022/03/15 05:08:37;;;;;;;26.15;12.93;;;2.90;99.90;;;;;;5046633;28;20086;-68
2022/03/15 05:11:06;;;;;;;22.15;12.43;;;3.00;99.90;;;;;;5039131;28;20037;-68
2022/03/15 05:13:36;;;;;;;24.85;12.18;;;3.10;99.90;;;;;;5051507;28;20369;-68
2022/03/15 05:16:02;;;;;;;23.70;12.90;;;3.10;99.90;;;;;;5046488;28;20412;-68
2022/03/15 05:18:28;;;;;;;24.60;11.82;;;3.00;99.90;;;;;;5053240;28;20041;-68
2022/03/15 05:20:53;;;;;;;22.30;11.15;;;3.00;99.90;;;;;;5052417;28;20430;-69
2022/03/15 05:23:19;;;;;;;24.90;11.90;;;3.00;99.90;;;;;;5055044;28;20115;-68
2022/03/15 05:25:45;;;;;;;26.17;13.68;;;3.00;99.90;;;;;;5052453;28;20036;-69
2022/03/15 05:28:10;;;;;;;24.17;12.70;;;3.00;99.90;;;;;;5048725;28;20107;-68
2022/03/15 05:30:37;;;;;;;26.45;15.15;;;3.00;99.90;;;;;;5049981;28;20044;-68
2022/03/15 05:33:03;;;;;;;28.40;15.23;;;3.00;99.90;;;;;;5058667;28;20036;-68
2022/03/15 05:35:28;;;;;;;28.38;16.38;;;3.00;99.90;;;;;;5039018;28;20102;-68
2022/03/15 05:37:54;;;;;;;33.60;16.23;;;3.00;99.90;;;;;;5047571;28;20036;-68
2022/03/15 05:40:20;;;;;;;35.55;17.70;;;3.10;99.90;;;;;;5050367;28;20098;-69
2022/03/15 05:42:46;;;;;;;38.25;18.58;;;3.10;99.90;;;;;;5051760;28;20472;-68
2022/03/15 05:45:13;;;;;;;38.75;19.60;;;3.10;99.90;;;;;;5047154;28;20041;-69
2022/03/15 05:47:38;;;;;;;38.78;18.58;;;3.20;99.90;;;;;;5049512;28;20749;-68
2022/03/15 05:50:05;;;;;;;37.40;18.45;;;3.20;99.90;;;;;;5057018;28;20051;-68
2022/03/15 05:52:30;;;;;;;39.65;18.52;;;3.20;99.90;;;;;;5058651;28;20039;-68
2022/03/15 05:54:56;;;;;;;35.33;19.00;;;3.20;99.90;;;;;;5051952;28;20127;-68
2022/03/15 05:57:22;;;;;;;43.45;19.95;;;3.20;99.90;;;;;;5034834;28;20040;-68
2022/03/15 05:59:47;;;;;;;38.47;20.55;;;3.20;99.90;;;;;;5033442;28;20059;-68
2022/03/15 06:02:13;;;;;;;39.63;19.85;;;3.30;99.90;;;;;;5049516;28;20032;-68
2022/03/15 06:04:38;;;;;;;43.25;21.33;;;3.30;99.90;;;;;;5050545;28;20098;-68
2022/03/15 06:07:04;;;;;;;39.45;19.92;;;3.30;99.90;;;;;;5046982;28;20075;-69
2022/03/15 06:09:30;;;;;;;44.47;20.25;;;3.30;99.90;;;;;;5043777;28;20036;-68
2022/03/15 06:11:55;;;;;;;42.15;20.45;;;3.40;99.90;;;;;;5055547;28;20262;-68
2022/03/15 06:14:22;;;;;;;39.90;20.10;;;3.40;99.90;;;;;;5033576;28;20071;-69
2022/03/15 06:16:48;;;;;;;43.75;20.13;;;3.50;99.90;;;;;;5049161;28;20040;-68
2022/03/15 06:19:14;;;;;;;37.13;19.33;;;3.50;99.90;;;;;;5053623;28;20056;-68
2022/03/15 06:21:40;;;;;;;45.38;22.55;;;3.50;99.90;;;;;;5044543;28;20058;-68
2022/03/15 06:24:07;;;;;;;42.58;20.10;;;3.60;99.90;;;;;;5054953;28;20074;-68
2022/03/15 06:26:33;;;;;;;44.03;21.20;;;3.60;99.90;;;;;;5058286;28;20044;-68
2022/03/15 06:28:59;;;;;;;45.75;21.70;;;3.60;99.90;;;;;;5048742;28;20059;-68
2022/03/15 06:31:25;;;;;;;52.13;24.30;;;3.60;99.90;;;;;;5058898;28;20082;-67
2022/03/15 06:33:50;;;;;;;60.80;26.73;;;3.70;99.90;;;;;;5048749;28;20041;-70
2022/03/15 06:36:16;;;;;;;55.80;24.98;;;3.80;99.90;;;;;;5048938;28;20033;-68
2022/03/15 06:38:42;;;;;;;56.95;25.73;;;3.80;99.90;;;;;;5048911;28;20150;-68
2022/03/15 06:41:11;;;;;;;59.75;26.77;;;3.90;99.90;;;;;;5048904;28;20132;-67
2022/03/15 06:43:39;;;;;;;66.95;27.83;;;3.90;99.90;;;;;;5047838;28;20044;-68
2022/03/15 06:46:06;;;;;;;58.95;27.15;;;4.00;99.90;;;;;;5035354;28;20041;-67
2022/03/15 06:48:31;;;;;;;68.22;28.52;;;4.00;99.90;;;;;;5052702;28;20053;-67
2022/03/15 06:50:57;;;;;;;64.57;27.88;;;4.10;99.90;;;;;;5046466;28;20466;-68
2022/03/15 06:53:23;;;;;;;71.45;27.65;;;4.10;99.90;;;;;;5046606;28;20049;-67
2022/03/15 06:55:48;;;;;;;68.15;27.50;;;4.20;99.90;;;;;;5045373;28;20041;-67
2022/03/15 06:58:14;;;;;;;67.82;27.00;;;4.20;99.90;;;;;;5056234;28;20114;-68
2022/03/15 07:00:40;;;;;;;67.85;29.38;;;4.20;99.90;;;;;;5054763;28;20043;-68
2022/03/15 07:03:05;;;;;;;67.00;28.45;;;4.30;99.90;;;;;;5050883;28;20119;-68
2022/03/15 07:05:31;;;;;;;66.85;30.60;;;4.40;99.90;;;;;;5049288;28;20045;-68
2022/03/15 07:07:57;;;;;;;71.93;29.17;;;4.40;99.90;;;;;;5053285;28;20044;-68
2022/03/15 07:10:23;;;;;;;67.55;29.70;;;4.40;99.90;;;;;;5036022;28;20068;-69
2022/03/15 07:12:49;;;;;;;60.15;26.83;;;4.50;99.90;;;;;;5055805;28;20037;-67
2022/03/15 07:15:16;;;;;;;61.30;27.42;;;4.60;99.90;;;;;;5058771;28;20040;-68
2022/03/15 07:17:50;;;;;;;61.70;27.23;;;4.60;99.90;;;;;;5053370;28;20447;-68
2022/03/15 07:20:16;;;;;;;69.53;30.10;;;4.70;99.90;;;;;;5063292;28;20051;-68
2022/03/15 07:22:41;;;;;;;61.72;28.17;;;4.70;99.90;;;;;;5056360;28;20048;-69
2022/03/15 07:25:07;;;;;;;69.28;29.20;;;4.80;99.90;;;;;;5056836;28;20457;-68
2022/03/15 07:27:33;;;;;;;62.55;27.75;;;4.90;99.90;;;;;;5070448;28;20495;-68
2022/03/15 07:29:59;;;;;;;54.25;24.88;;;4.90;99.90;;;;;;5040133;28;20052;-68
2022/03/15 07:32:24;;;;;;;61.80;27.27;;;5.00;99.90;;;;;;5056043;28;20448;-68
2022/03/15 07:34:50;;;;;;;64.70;28.88;;;5.10;99.90;;;;;;5049945;28;20045;-67
2022/03/15 07:37:15;;;;;;;61.15;28.77;;;5.20;99.90;;;;;;5034765;28;20347;-68
2022/03/15 07:39:41;;;;;;;65.88;29.48;;;5.20;99.90;;;;;;5062489;28;20378;-68
2022/03/15 07:42:07;;;;;;;54.70;26.67;;;5.20;99.90;;;;;;5055394;28;20037;-68
2022/03/15 07:44:32;;;;;;;62.05;27.42;;;5.30;99.90;;;;;;5052792;28;20442;-68
2022/03/15 07:46:58;;;;;;;65.45;29.95;;;5.40;99.90;;;;;;5035753;28;20665;-68
2022/03/15 07:49:23;;;;;;;58.30;29.00;;;5.40;99.90;;;;;;5052032;28;20616;-69
2022/03/15 07:51:49;;;;;;;66.82;28.70;;;5.50;99.90;;;;;;5034246;28;20063;-68
2022/03/15 07:54:16;;;;;;;59.80;29.13;;;5.50;99.90;;;;;;5058005;28;20113;-67
2022/03/15 07:56:42;;;;;;;59.28;27.48;;;5.60;99.90;;;;;;5056070;28;20481;-67
2022/03/15 07:59:07;;;;;;;62.88;28.90;;;5.60;99.90;;;;;;5042020;28;20120;-68
2022/03/15 08:01:34;;;;;;;59.28;27.88;;;5.70;99.90;;;;;;5056448;28;20041;-68
2022/03/15 08:04:00;;;;;;;63.35;30.30;;;5.70;99.90;;;;;;5055610;28;20045;-67
2022/03/15 08:06:26;;;;;;;64.35;30.00;;;5.70;99.90;;;;;;5054120;28;20033;-67
2022/03/15 08:08:56;;;;;;;64.68;29.20;;;5.80;99.90;;;;;;5046002;28;20051;-68
2022/03/15 08:11:25;;;;;;;61.30;29.27;;;5.80;99.90;;;;;;5055092;28;20072;-67
2022/03/15 08:13:53;;;;;;;61.53;29.45;;;5.80;99.90;;;;;;5053977;28;20041;-68
2022/03/15 08:16:21;;;;;;;62.70;30.30;;;5.90;99.90;;;;;;5039334;28;20039;-67
2022/03/15 08:18:46;;;;;;;59.30;29.90;;;6.00;99.90;;;;;;5059092;28;20032;-68
2022/03/15 08:21:12;;;;;;;58.97;28.48;;;5.90;99.90;;;;;;5061788;28;20029;-68
2022/03/15 08:23:38;;;;;;;65.55;30.33;;;6.00;99.90;;;;;;5064840;28;20371;-68
2022/03/15 08:26:03;;;;;;;61.47;28.67;;;6.00;99.90;;;;;;5061558;28;20044;-67
2022/03/15 08:28:29;;;;;;;63.90;28.80;;;6.00;99.90;;;;;;5050708;28;20063;-68
2022/03/15 08:30:55;;;;;;;63.67;28.98;;;6.00;99.90;;;;;;5070414;28;20392;-68
2022/03/15 08:33:21;;;;;;;60.45;27.58;;;6.00;99.90;;;;;;5049378;28;20033;-68
2022/03/15 08:35:47;;;;;;;59.90;29.33;;;6.00;99.90;;;;;;5052083;28;20071;-68
2022/03/15 08:38:13;;;;;;;67.13;29.75;;;6.00;99.90;;;;;;5059708;28;20037;-69
2022/03/15 08:40:39;;;;;;;63.13;29.17;;;6.00;99.90;;;;;;5035591;28;20072;-68
2022/03/15 08:43:06;;;;;;;63.95;30.08;;;6.00;99.90;;;;;;5054854;28;20029;-68
2022/03/15 08:45:31;;;;;;;60.13;28.17;;;6.00;99.90;;;;;;5035485;28;20048;-68
2022/03/15 08:47:57;;;;;;;64.78;30.55;;;6.00;99.90;;;;;;5063548;28;20144;-69
2022/03/15 08:50:22;;;;;;;61.85;30.48;;;6.00;99.90;;;;;;5046913;28;20569;-67
2022/03/15 08:52:48;;;;;;;63.05;28.52;;;6.00;99.90;;;;;;5030577;28;20136;-68
2022/03/15 08:55:15;;;;;;;72.88;30.58;;;6.00;99.90;;;;;;5046604;28;20099;-68
2022/03/15 08:57:40;;;;;;;74.00;33.08;;;6.00;99.90;;;;;;5049265;28;20176;-68
2022/03/15 09:00:08;;;;;;;69.43;31.90;;;6.00;99.90;;;;;;5048970;28;20483;-68
2022/03/15 09:02:34;;;;;;;64.72;28.27;;;6.10;99.90;;;;;;5046028;28;20092;-69
2022/03/15 09:05:00;;;;;;;70.97;33.47;;;6.10;99.90;;;;;;5053259;28;20099;-68
2022/03/15 09:07:27;;;;;;;67.45;30.63;;;6.10;99.90;;;;;;5048418;28;20103;-67
2022/03/15 09:09:53;;;;;;;69.65;32.28;;;6.10;99.90;;;;;;5053837;28;20119;-67
2022/03/15 09:12:19;;;;;;;75.68;33.63;;;6.10;99.90;;;;;;5063532;28;20067;-67
2022/03/15 09:14:45;;;;;;;72.60;32.03;;;6.20;99.90;;;;;;5057613;28;20039;-67
2022/03/15 09:17:11;;;;;;;67.00;32.97;;;6.20;99.90;;;;;;5053240;28;20477;-67
2022/03/15 09:19:36;;;;;;;80.55;34.25;;;6.20;99.90;;;;;;5056466;28;20061;-68
2022/03/15 09:22:04;;;;;;;76.90;34.58;;;6.20;99.90;;;;;;5027511;28;20749;-67
2022/03/15 09:24:30;;;;;;;67.85;33.55;;;6.20;99.90;;;;;;5049396;28;20497;-68
2022/03/15 09:26:56;;;;;;;76.10;34.65;;;6.30;99.90;;;;;;5054991;28;20032;-68
2022/03/15 09:29:22;;;;;;;84.90;36.83;;;6.30;99.90;;;;;;5034113;28;20051;-67
2022/03/15 09:31:47;;;;;;;73.55;34.22;;;6.30;99.90;;;;;;5046552;28;20127;-66
2022/03/15 09:34:13;;;;;;;75.93;34.60;;;6.30;99.90;;;;;;5056728;28;20036;-67
2022/03/15 09:36:39;;;;;;;68.63;32.92;;;6.30;99.90;;;;;;5055149;28;20044;-66
2022/03/15 09:39:07;;;;;;;75.55;34.03;;;6.40;99.90;;;;;;5057915;28;20032;-66
2022/03/15 09:41:38;;;;;;;77.72;35.47;;;6.30;99.90;;;;;;5034521;28;20103;-66
2022/03/15 09:44:08;;;;;;;75.07;33.78;;;6.40;99.90;;;;;;5046009;28;20037;-66
2022/03/15 09:46:43;;;;;;;66.93;34.47;;;6.40;99.90;;;;;;5050418;28;20120;-66
2022/03/15 09:49:09;;;;;;;79.22;35.53;;;6.40;99.90;;;;;;5059644;28;20478;-66
2022/03/15 09:51:36;;;;;;;83.00;35.53;;;6.50;99.90;;;;;;5050203;28;20087;-66
2022/03/15 09:54:04;;;;;;;70.53;37.28;;;6.50;99.90;;;;;;5075046;28;20036;-65
2022/03/15 09:56:30;;;;;;;86.20;37.13;;;6.50;99.90;;;;;;5056255;28;20080;-65
2022/03/15 09:58:55;;;;;;;75.07;35.22;;;6.50;99.90;;;;;;5064486;28;20056;-66
2022/03/15 10:01:21;;;;;;;87.32;39.55;;;6.60;99.90;;;;;;5066250;28;20083;-65
2022/03/15 10:03:47;;;;;;;86.55;39.67;;;6.60;99.90;;;;;;5055007;28;20473;-66
2022/03/15 10:06:16;;;;;;;80.07;36.67;;;6.70;99.90;;;;;;5047409;28;20111;-65
2022/03/15 10:08:42;;;;;;;80.55;37.72;;;6.70;99.90;;;;;;5055167;28;20041;-66
2022/03/15 10:11:09;;;;;;;85.47;39.97;;;6.80;99.90;;;;;;5054209;28;20045;-65
2022/03/15 10:13:35;;;;;;;82.22;40.10;;;6.90;99.90;;;;;;5050082;28;20559;-66
2022/03/15 10:16:03;;;;;;;84.32;39.45;;;7.00;99.90;;;;;;5048967;28;20081;-64
2022/03/15 10:18:29;;;;;;;90.53;41.65;;;7.00;99.90;;;;;;5055510;28;20112;-65
2022/03/15 10:20:55;;;;;;;91.57;41.65;;;7.10;99.90;;;;;;5055893;28;20123;-65
2022/03/15 10:23:29;;;;;;;90.95;42.45;;;7.20;99.90;;;;;;5057161;28;20037;-65
2022/03/15 10:25:56;;;;;;;99.10;43.15;;;7.30;99.90;;;;;;5056331;28;20090;-65
2022/03/15 10:28:22;;;;;;;86.30;42.83;;;7.50;99.90;;;;;;5055204;28;20029;-67
2022/03/15 10:30:48;;;;;;;97.30;44.72;;;7.60;99.90;;;;;;5060743;28;20041;-65
2022/03/15 10:33:16;;;;;;;90.22;44.45;;;7.70;99.90;;;;;;5050516;28;20223;-66
2022/03/15 10:35:49;;;;;;;83.55;42.38;;;7.70;99.90;;;;;;5047949;28;20120;-66
2022/03/15 10:38:15;;;;;;;78.45;41.40;;;7.80;99.90;;;;;;5053150;28;20143;-66
2022/03/15 10:40:43;;;;;;;79.47;41.20;;;7.90;99.90;;;;;;5049162;28;20168;-66
2022/03/15 10:43:29;;;;;;;75.07;40.85;;;8.00;99.90;;;;;;5069603;28;20109;-66
2022/03/15 10:45:57;;;;;;;74.80;39.53;;;8.00;99.90;;;;;;5054245;28;20052;-66
2022/03/15 10:48:32;;;;;;;74.82;37.47;;;8.10;99.90;;;;;;5057788;28;20120;-67
2022/03/15 10:51:05;;;;;;;67.63;36.95;;;8.10;99.90;;;;;;5038140;28;20051;-67
2022/03/15 10:53:47;;;;;;;59.35;32.80;;;8.10;99.90;;;;;;5055725;28;20041;-67
2022/03/15 10:56:20;;;;;;;65.03;34.72;;;8.10;99.90;;;;;;5068993;28;20072;-66
2022/03/15 10:59:01;;;;;;;68.03;34.28;;;8.00;99.90;;;;;;5073934;28;20075;-67
2022/03/15 11:01:34;;;;;;;68.85;35.40;;;8.10;99.90;;;;;;5062830;28;20497;-66
2022/03/15 11:04:03;;;;;;;66.68;35.65;;;8.10;99.90;;;;;;5057515;28;20041;-67
2022/03/15 11:06:40;;;;;;;61.90;34.53;;;8.20;99.90;;;;;;5070652;28;20036;-67
2022/03/15 11:09:24;;;;;;;57.10;32.80;;;8.40;99.90;;;;;;5065035;28;20113;-67
2022/03/15 11:12:02;;;;;;;65.65;36.88;;;8.50;99.90;;;;;;5054055;28;20423;-68
2022/03/15 11:14:38;;;;;;;66.25;35.97;;;8.70;99.90;;;;;;5067267;28;20044;-68
2022/03/15 11:17:24;;;;;;;60.83;34.33;;;8.90;99.90;;;;;;5055210;28;20052;-68
2022/03/15 11:19:54;;;;;;;61.90;33.25;;;8.90;99.90;;;;;;5062930;28;20057;-69
2022/03/15 11:22:31;;;;;;;59.23;33.43;;;9.10;99.90;;;;;;5038118;28;20253;-68
2022/03/15 11:25:08;;;;;;;53.22;30.33;;;9.20;99.90;;;;;;5056707;28;20376;-67
2022/03/15 11:27:39;;;;;;;48.47;27.63;;;9.20;99.90;;;;;;5055372;28;20419;-68
2022/03/15 11:30:07;;;;;;;48.13;28.90;;;9.20;99.90;;;;;;5058947;28;20083;-68
2022/03/15 11:32:34;;;;;;;53.55;31.55;;;9.20;99.90;;;;;;5071148;28;20452;-68
2022/03/15 11:35:00;;;;;;;48.08;27.85;;;9.30;99.90;;;;;;5056166;28;20048;-68
2022/03/15 11:37:26;;;;;;;48.13;28.70;;;9.40;99.90;;;;;;5051748;28;20080;-67
2022/03/15 11:39:53;;;;;;;50.60;27.73;;;9.50;99.90;;;;;;5057026;28;20120;-67
2022/03/15 11:42:19;;;;;;;51.60;29.60;;;9.50;99.90;;;;;;5065344;28;20063;-67
2022/03/15 11:45:01;;;;;;;54.20;31.67;;;9.70;99.90;;;;;;5063686;28;20487;-67
2022/03/15 11:47:43;;;;;;;45.53;29.35;;;9.70;99.90;;;;;;5068171;28;20036;-67
2022/03/15 11:50:24;;;;;;;43.60;25.88;;;9.90;99.90;;;;;;5063498;28;20044;-67
2022/03/15 11:53:08;;;;;;;48.05;27.15;;;10.00;99.90;;;;;;5062347;28;20033;-68
2022/03/15 11:55:49;;;;;;;43.45;27.17;;;10.10;99.90;;;;;;5063249;28;20119;-67
2022/03/15 11:58:23;;;;;;;49.25;27.80;;;10.10;99.90;;;;;;5058085;28;20041;-67
2022/03/15 12:00:49;;;;;;;44.75;25.27;;;10.20;99.90;;;;;;5057787;28;20475;-66
2022/03/15 12:03:21;;;;;;;41.63;24.33;;;10.30;99.90;;;;;;5051653;28;20120;-67
2022/03/15 12:05:55;;;;;;;44.03;27.30;;;10.20;99.90;;;;;;5053252;28;20074;-68
2022/03/15 12:08:28;;;;;;;44.80;26.02;;;10.30;99.90;;;;;;5047755;28;20040;-68
2022/03/15 12:10:56;;;;;;;40.85;24.58;;;10.30;99.90;;;;;;5067953;28;20129;-67
2022/03/15 12:13:33;;;;;;;34.97;22.77;;;10.20;99.90;;;;;;5053131;28;20068;-67
2022/03/15 12:16:13;;;;;;;42.40;22.90;;;10.30;99.90;;;;;;5049747;28;20055;-67
2022/03/15 12:18:43;;;;;;;42.80;24.63;;;10.20;99.90;;;;;;5051577;28;20039;-67
2022/03/15 12:21:10;;;;;;;34.13;22.08;;;10.30;99.90;;;;;;5058239;28;20050;-67
2022/03/15 12:23:50;;;;;;;38.95;22.85;;;10.40;99.90;;;;;;5055650;28;20076;-68
2022/03/15 12:26:18;;;;;;;40.88;24.65;;;10.40;99.90;;;;;;5049956;28;20090;-67
2022/03/15 12:29:14;;;;;;;40.63;24.52;;;10.40;99.90;;;;;;5051167;28;20068;-67
2022/03/15 12:31:47;;;;;;;41.55;24.33;;;10.40;99.90;;;;;;5050723;28;20721;-67
2022/03/15 12:34:14;;;;;;;39.33;23.67;;;10.50;99.90;;;;;;5049184;28;20069;-68
2022/03/15 12:37:00;;;;;;;37.90;23.65;;;10.50;99.90;;;;;;5053963;28;20545;-68
2022/03/15 12:39:32;;;;;;;38.15;22.80;;;10.60;99.90;;;;;;5067416;28;20037;-67